createdAt,value
2022-10-31T00:02:08.417Z,1.33
2022-10-31T00:04:34.903Z,1.40
2022-10-31T00:07:01.323Z,1.50
2022-10-31T00:09:27.754Z,1.90
2022-10-31T00:11:54.193Z,1.10
2022-10-31T00:14:20.631Z,1.92
2022-10-31T00:16:47.062Z,2.53
2022-10-31T00:19:13.490Z,3.38
2022-10-31T00:21:39.899Z,2.65
2022-10-31T00:24:06.337Z,2.65
2022-10-31T00:26:32.774Z,3.28
2022-10-31T00:28:59.230Z,4.50
2022-10-31T00:31:25.664Z,3.80
2022-10-31T00:33:52.085Z,3.13
2022-10-31T00:36:18.504Z,2.55
2022-10-31T00:38:44.952Z,2.00
2022-10-31T00:41:11.367Z,1.40
2022-10-31T00:43:37.832Z,1.10
2022-10-31T00:46:04.268Z,1.13
2022-10-31T00:48:30.703Z,1.23
2022-10-31T00:50:57.132Z,1.23
2022-10-31T00:53:23.578Z,1.25
2022-10-31T00:55:50.022Z,1.20
2022-10-31T00:58:16.527Z,1.73
2022-10-31T01:00:45.590Z,1.33
2022-10-31T01:03:14.565Z,1.80
2022-10-31T01:05:41.018Z,1.52
2022-10-31T01:08:07.459Z,1.15
2022-10-31T01:10:33.907Z,1.35
2022-10-31T01:13:00.706Z,0.85
2022-10-31T01:15:27.322Z,1.15
2022-10-31T01:17:53.759Z,1.20
2022-10-31T01:20:20.199Z,1.13
2022-10-31T01:22:46.636Z,0.90
2022-10-31T01:25:13.093Z,1.58
2022-10-31T01:27:39.540Z,1.20
2022-10-31T01:30:05.977Z,2.08
2022-10-31T01:32:32.397Z,1.73
2022-10-31T01:34:58.837Z,1.73
2022-10-31T01:37:25.277Z,1.33
2022-10-31T01:39:51.730Z,1.15
2022-10-31T01:42:18.164Z,1.55
2022-10-31T01:44:44.612Z,1.48
2022-10-31T01:47:11.042Z,1.52
2022-10-31T01:49:37.488Z,1.42
2022-10-31T01:52:03.902Z,1.85
2022-10-31T01:54:30.351Z,1.85
2022-10-31T01:56:56.870Z,1.38
2022-10-31T01:59:23.359Z,1.10
2022-10-31T02:01:49.909Z,1.75
2022-10-31T02:04:16.417Z,1.40
2022-10-31T02:06:42.868Z,1.40
2022-10-31T02:09:09.299Z,0.90
2022-10-31T02:11:35.753Z,1.00
2022-10-31T02:14:02.186Z,0.82
2022-10-31T02:16:28.657Z,0.70
2022-10-31T02:18:55.104Z,0.90
2022-10-31T02:21:21.558Z,1.02
2022-10-31T02:23:50.412Z,1.10
2022-10-31T02:26:17.124Z,1.40
2022-10-31T02:28:43.533Z,1.33
2022-10-31T02:31:09.964Z,1.58
2022-10-31T02:33:36.405Z,1.40
2022-10-31T02:36:02.860Z,2.20
2022-10-31T02:38:29.301Z,1.10
2022-10-31T02:40:55.735Z,2.28
2022-10-31T02:43:22.177Z,1.38
2022-10-31T02:45:48.602Z,1.20
2022-10-31T02:48:15.053Z,1.20
2022-10-31T02:50:41.477Z,1.20
2022-10-31T02:53:07.904Z,1.65
2022-10-31T02:55:34.318Z,1.88
2022-10-31T02:58:01.058Z,2.08
2022-10-31T03:00:27.670Z,3.05
2022-10-31T03:02:54.109Z,2.17
2022-10-31T03:05:20.533Z,1.45
2022-10-31T03:07:46.985Z,1.13
2022-10-31T03:10:13.408Z,1.17
2022-10-31T03:12:43.122Z,1.55
2022-10-31T03:15:12.491Z,1.45
2022-10-31T03:17:38.920Z,1.15
2022-10-31T03:20:05.347Z,1.15
2022-10-31T03:22:31.755Z,1.38
2022-10-31T03:24:58.184Z,1.58
2022-10-31T03:27:24.606Z,1.70
2022-10-31T03:29:51.036Z,2.90
2022-10-31T03:32:17.452Z,0.80
2022-10-31T03:34:43.908Z,1.05
2022-10-31T03:37:10.332Z,0.60
2022-10-31T03:39:36.759Z,1.13
2022-10-31T03:42:03.187Z,2.28
2022-10-31T03:44:29.616Z,2.80
2022-10-31T03:46:56.051Z,3.63
2022-10-31T03:49:22.494Z,2.78
2022-10-31T03:51:48.926Z,3.53
2022-10-31T03:54:15.399Z,6.65
2022-10-31T03:56:41.823Z,8.43
2022-10-31T03:59:08.244Z,14.50
2022-10-31T04:01:34.759Z,9.65
2022-10-31T04:04:01.239Z,8.98
2022-10-31T04:06:27.695Z,6.70
2022-10-31T04:08:54.134Z,6.28
2022-10-31T04:11:20.591Z,7.78
2022-10-31T04:13:47.038Z,7.05
2022-10-31T04:16:16.909Z,6.78
2022-10-31T04:18:43.853Z,6.57
2022-10-31T04:21:10.292Z,3.75
2022-10-31T04:23:36.741Z,2.88
2022-10-31T04:26:03.190Z,3.42
2022-10-31T04:28:29.628Z,3.60
2022-10-31T04:30:56.059Z,1.98
2022-10-31T04:33:22.485Z,1.92
2022-10-31T04:35:48.911Z,2.25
2022-10-31T04:38:15.358Z,1.92
2022-10-31T04:40:41.806Z,1.92
2022-10-31T04:43:08.307Z,2.78
2022-10-31T04:45:34.784Z,1.23
2022-10-31T04:48:01.650Z,1.48
2022-10-31T04:50:28.336Z,2.00
2022-10-31T04:52:54.799Z,1.30
2022-10-31T04:55:21.225Z,1.08
2022-10-31T04:57:47.663Z,6.93
2022-10-31T05:00:14.080Z,16.33
2022-10-31T05:02:43.635Z,13.07
2022-10-31T05:05:10.970Z,10.38
2022-10-31T05:07:37.394Z,9.13
2022-10-31T05:10:03.829Z,6.55
2022-10-31T05:12:30.264Z,5.55
2022-10-31T05:14:56.688Z,4.20
2022-10-31T05:17:23.119Z,3.60
2022-10-31T05:19:49.543Z,2.80
2022-10-31T05:22:15.982Z,1.90
2022-10-31T05:24:42.394Z,2.30
2022-10-31T05:27:08.818Z,1.85
2022-10-31T05:29:35.236Z,1.40
2022-10-31T05:32:01.688Z,1.20
2022-10-31T05:34:28.123Z,1.08
2022-10-31T05:36:54.551Z,0.90
2022-10-31T05:39:20.972Z,0.70
2022-10-31T05:41:47.389Z,1.88
2022-10-31T05:44:13.828Z,1.77
2022-10-31T05:46:40.249Z,1.13
2022-10-31T05:49:06.690Z,0.70
2022-10-31T05:51:33.127Z,1.35
2022-10-31T05:53:59.579Z,0.98
2022-10-31T05:56:26.027Z,0.88
2022-10-31T05:58:52.473Z,1.02
2022-10-31T06:01:18.941Z,1.55
2022-10-31T06:03:45.480Z,0.80
2022-10-31T06:06:11.945Z,1.20
2022-10-31T06:08:38.415Z,0.90
2022-10-31T06:11:04.841Z,1.10
2022-10-31T06:13:31.449Z,0.88
2022-10-31T06:15:57.881Z,1.58
2022-10-31T06:18:24.326Z,0.90
2022-10-31T06:20:50.766Z,0.82
2022-10-31T06:23:17.211Z,1.08
2022-10-31T06:25:43.660Z,0.80
2022-10-31T06:28:10.097Z,0.85
2022-10-31T06:30:36.545Z,0.60
2022-10-31T06:33:03.250Z,0.70
2022-10-31T06:35:29.869Z,0.68
2022-10-31T06:37:56.303Z,0.60
2022-10-31T06:40:22.735Z,1.58
2022-10-31T06:42:49.151Z,1.00
2022-10-31T06:45:15.598Z,2.20
2022-10-31T06:48:10.835Z,1.77
2022-10-31T06:50:28.455Z,1.02
2022-10-31T06:52:54.867Z,2.00
2022-10-31T06:55:21.327Z,1.10
2022-10-31T06:57:47.743Z,0.90
2022-10-31T07:00:14.191Z,0.90
2022-10-31T07:02:40.628Z,1.80
2022-10-31T07:05:08.156Z,1.80
2022-10-31T07:07:34.643Z,2.03
2022-10-31T07:10:01.175Z,1.40
2022-10-31T07:12:27.665Z,1.00
2022-10-31T07:14:54.094Z,0.90
2022-10-31T07:17:20.541Z,1.40
2022-10-31T07:19:46.982Z,1.42
2022-10-31T07:22:13.404Z,1.00
2022-10-31T07:24:39.841Z,1.30
2022-10-31T07:27:06.280Z,1.52
2022-10-31T07:29:32.703Z,0.57
2022-10-31T07:31:59.149Z,0.82
2022-10-31T07:34:25.560Z,0.88
2022-10-31T07:36:51.996Z,1.17
2022-10-31T07:39:18.456Z,1.02
2022-10-31T07:41:44.909Z,1.13
2022-10-31T07:44:11.321Z,1.20
2022-10-31T07:46:37.746Z,1.65
2022-10-31T07:49:04.165Z,1.88
2022-10-31T07:51:30.616Z,2.05
2022-10-31T07:53:57.030Z,3.05
2022-10-31T07:56:23.463Z,2.13
2022-10-31T07:58:49.894Z,2.65
2022-10-31T08:01:16.364Z,2.30
2022-10-31T08:03:42.797Z,2.67
2022-10-31T08:06:09.228Z,2.38
2022-10-31T08:08:38.295Z,3.08
2022-10-31T08:11:05.018Z,2.78
2022-10-31T08:13:31.460Z,2.97
2022-10-31T08:15:57.906Z,4.10
2022-10-31T08:18:24.357Z,5.32
2022-10-31T08:20:50.783Z,4.35
2022-10-31T08:23:17.231Z,2.88
2022-10-31T08:25:43.660Z,2.90
2022-10-31T08:28:10.097Z,2.97
2022-10-31T08:30:36.541Z,3.03
2022-10-31T08:33:02.977Z,3.60
2022-10-31T08:35:29.405Z,4.22
2022-10-31T08:37:55.856Z,5.03
2022-10-31T08:40:22.291Z,5.10
2022-10-31T08:42:48.761Z,3.95
2022-10-31T08:45:15.200Z,5.03
2022-10-31T08:47:41.652Z,4.72
2022-10-31T08:50:08.097Z,3.92
2022-10-31T08:53:02.961Z,3.75
2022-10-31T08:55:20.988Z,4.55
2022-10-31T08:57:47.436Z,3.75
2022-10-31T09:00:13.870Z,3.72
2022-10-31T09:02:40.294Z,4.68
2022-10-31T09:05:06.737Z,3.40
2022-10-31T09:07:33.182Z,3.17
2022-10-31T09:09:59.616Z,5.07
2022-10-31T09:12:26.041Z,3.92
2022-10-31T09:14:52.494Z,4.50
2022-10-31T09:17:18.917Z,4.25
2022-10-31T09:19:45.349Z,4.60
2022-10-31T09:22:11.773Z,4.22
2022-10-31T09:24:38.216Z,3.55
2022-10-31T09:27:04.644Z,3.50
2022-10-31T09:29:31.078Z,6.28
2022-10-31T09:31:57.515Z,5.80
2022-10-31T09:34:23.952Z,5.38
2022-10-31T09:36:50.366Z,5.68
2022-10-31T09:39:16.790Z,4.78
2022-10-31T09:41:43.212Z,5.85
2022-10-31T09:44:09.655Z,4.93
2022-10-31T09:46:36.086Z,6.43
2022-10-31T09:49:02.523Z,5.45
2022-10-31T09:51:28.979Z,5.35
2022-10-31T09:53:55.404Z,3.80
2022-10-31T09:56:21.871Z,4.40
2022-10-31T09:58:48.304Z,3.45
2022-10-31T10:01:14.910Z,3.47
2022-10-31T10:03:41.466Z,4.50
2022-10-31T10:06:07.904Z,4.85
2022-10-31T10:08:34.340Z,3.80
2022-10-31T10:11:00.781Z,3.63
2022-10-31T10:13:27.207Z,3.28
2022-10-31T10:15:53.655Z,4.75
2022-10-31T10:18:20.096Z,6.30
2022-10-31T10:20:46.529Z,6.95
2022-10-31T10:23:12.984Z,7.22
2022-10-31T10:25:39.424Z,5.05
2022-10-31T10:28:05.873Z,5.38
2022-10-31T10:30:32.319Z,5.53
2022-10-31T10:32:58.753Z,4.60
2022-10-31T10:35:25.165Z,3.78
2022-10-31T10:37:51.602Z,3.10
2022-10-31T10:40:18.028Z,3.97
2022-10-31T10:42:44.475Z,6.00
2022-10-31T10:45:10.900Z,5.57
2022-10-31T10:47:37.325Z,5.50
2022-10-31T10:50:03.753Z,3.72
2022-10-31T10:52:50.258Z,3.80
2022-10-31T10:55:16.593Z,3.67
2022-10-31T10:57:43.002Z,2.85
2022-10-31T11:00:09.437Z,3.67
2022-10-31T11:02:35.868Z,3.13
2022-10-31T11:05:02.302Z,2.72
2022-10-31T11:07:28.724Z,3.50
2022-10-31T11:09:55.164Z,5.18
2022-10-31T11:12:21.590Z,4.32
2022-10-31T11:14:48.019Z,2.20
2022-10-31T11:17:14.443Z,3.83
2022-10-31T11:19:40.959Z,3.90
2022-10-31T11:22:07.377Z,3.92
2022-10-31T11:24:33.811Z,6.72
2022-10-31T11:27:00.245Z,7.00
2022-10-31T11:29:26.683Z,6.35
2022-10-31T11:31:53.103Z,5.68
2022-10-31T11:34:19.519Z,6.82
2022-10-31T11:36:45.951Z,9.10
2022-10-31T11:39:12.382Z,9.60
2022-10-31T11:41:38.811Z,8.73
2022-10-31T11:44:05.226Z,11.05
2022-10-31T11:46:31.668Z,9.48
2022-10-31T11:48:58.081Z,13.93
2022-10-31T11:51:24.622Z,11.07
2022-10-31T11:53:51.038Z,13.20
2022-10-31T11:56:17.484Z,11.80
2022-10-31T11:58:43.919Z,12.23
2022-10-31T12:01:10.378Z,10.25
2022-10-31T12:03:36.824Z,16.60
2022-10-31T12:06:03.246Z,11.65
2022-10-31T12:08:29.684Z,14.32
2022-10-31T12:10:56.113Z,15.57
2022-10-31T12:13:22.543Z,11.98
2022-10-31T12:15:48.995Z,11.60
2022-10-31T12:18:15.432Z,10.15
2022-10-31T12:20:41.893Z,9.68
2022-10-31T12:23:08.356Z,11.77
2022-10-31T12:25:34.787Z,10.93
2022-10-31T12:28:01.229Z,10.85
2022-10-31T12:30:27.651Z,10.55
2022-10-31T12:32:54.109Z,8.73
2022-10-31T12:35:20.554Z,10.00
2022-10-31T12:37:47.011Z,12.50
2022-10-31T12:40:13.447Z,10.43
2022-10-31T12:42:39.873Z,12.60
2022-10-31T12:45:06.311Z,12.52
2022-10-31T12:47:32.746Z,13.73
2022-10-31T12:49:59.216Z,14.20
2022-10-31T12:52:25.667Z,14.98
2022-10-31T12:54:52.104Z,14.18
2022-10-31T12:57:18.561Z,12.07
2022-10-31T12:59:44.997Z,9.77
2022-10-31T13:02:11.547Z,12.45
2022-10-31T13:04:38.028Z,14.18
2022-10-31T13:07:04.456Z,13.95
2022-10-31T13:09:30.886Z,10.90
2022-10-31T13:11:57.332Z,11.10
2022-10-31T13:14:23.761Z,11.80
2022-10-31T13:16:50.191Z,9.68
2022-10-31T13:19:16.621Z,12.75
2022-10-31T13:21:43.056Z,11.50
2022-10-31T13:24:09.480Z,10.10
2022-10-31T13:26:35.913Z,10.15
2022-10-31T13:29:02.343Z,11.52
2022-10-31T13:31:28.786Z,12.10
2022-10-31T13:33:55.222Z,14.27
2022-10-31T13:36:21.654Z,12.40
2022-10-31T13:38:48.081Z,10.48
2022-10-31T13:41:14.533Z,13.27
2022-10-31T13:43:40.957Z,12.98
2022-10-31T13:46:07.391Z,13.52
2022-10-31T13:48:33.819Z,13.23
2022-10-31T13:51:00.232Z,13.10
2022-10-31T13:53:26.664Z,12.32
2022-10-31T13:55:53.093Z,15.30
2022-10-31T13:58:19.515Z,13.57
2022-10-31T14:00:45.994Z,13.75
2022-10-31T14:03:12.503Z,12.32
2022-10-31T14:05:38.950Z,14.80
2022-10-31T14:08:05.397Z,12.95
2022-10-31T14:10:31.875Z,15.95
2022-10-31T14:12:58.355Z,16.45
2022-10-31T14:15:24.782Z,19.05
2022-10-31T14:17:51.230Z,16.00
2022-10-31T14:20:17.669Z,18.92
2022-10-31T14:22:44.125Z,17.65
2022-10-31T14:25:10.555Z,21.73
2022-10-31T14:27:37.000Z,18.85
2022-10-31T14:30:03.446Z,16.17
2022-10-31T14:32:29.887Z,16.23
2022-10-31T14:34:56.345Z,18.75
2022-10-31T14:37:22.770Z,19.05
2022-10-31T14:39:49.221Z,16.00
2022-10-31T14:42:15.629Z,16.40
2022-10-31T14:44:42.080Z,21.80
2022-10-31T14:47:08.504Z,20.20
2022-10-31T14:49:34.935Z,16.80
2022-10-31T14:52:01.368Z,19.88
2022-10-31T14:54:27.814Z,19.58
2022-10-31T14:56:54.263Z,19.30
2022-10-31T14:59:20.704Z,19.00
2022-10-31T15:01:51.001Z,18.10
2022-10-31T15:04:24.973Z,17.98
2022-10-31T15:06:51.796Z,19.85
2022-10-31T15:09:18.211Z,13.10
2022-10-31T15:11:44.643Z,14.02
2022-10-31T15:14:11.161Z,12.65
2022-10-31T15:16:37.637Z,11.55
2022-10-31T15:19:04.050Z,12.00
2022-10-31T15:21:30.475Z,15.68
2022-10-31T15:23:56.895Z,16.08
2022-10-31T15:26:23.338Z,17.67
2022-10-31T15:28:49.754Z,19.08
2022-10-31T15:31:16.176Z,17.23
2022-10-31T15:33:47.876Z,16.60
2022-10-31T15:36:14.839Z,14.75
2022-10-31T15:38:41.263Z,13.52
2022-10-31T15:41:07.696Z,16.02
2022-10-31T15:43:34.122Z,16.95
2022-10-31T15:46:00.560Z,18.42
2022-10-31T15:48:27.003Z,16.13
2022-10-31T15:50:53.436Z,14.95
2022-10-31T15:53:19.865Z,18.80
2022-10-31T15:55:46.321Z,17.65
2022-10-31T15:58:12.751Z,16.95
2022-10-31T16:00:39.214Z,16.83
2022-10-31T16:03:05.646Z,17.33
2022-10-31T16:05:32.061Z,16.00
2022-10-31T16:07:58.495Z,16.20
2022-10-31T16:10:24.917Z,16.30
2022-10-31T16:12:51.372Z,15.43
2022-10-31T16:15:17.813Z,14.35
2022-10-31T16:17:44.276Z,16.13
2022-10-31T16:20:10.706Z,13.95
2022-10-31T16:22:37.162Z,16.77
2022-10-31T16:25:03.576Z,15.55
2022-10-31T16:27:30.083Z,18.08
2022-10-31T16:29:56.542Z,18.80
2022-10-31T16:32:22.989Z,15.95
2022-10-31T16:34:49.431Z,13.98
2022-10-31T16:37:15.881Z,12.88
2022-10-31T16:39:42.295Z,12.95
2022-10-31T16:42:08.813Z,16.75
2022-10-31T16:44:35.321Z,18.02
2022-10-31T16:47:01.776Z,17.45
2022-10-31T16:49:28.208Z,15.95
2022-10-31T16:51:54.630Z,18.48
2022-10-31T16:54:21.076Z,18.38
2022-10-31T16:56:47.526Z,22.83
2022-10-31T16:59:16.344Z,21.27
2022-10-31T17:01:43.175Z,21.45
2022-10-31T17:04:09.780Z,17.77
2022-10-31T17:06:36.215Z,16.77
2022-10-31T17:09:02.657Z,19.25
2022-10-31T17:11:29.076Z,23.58
2022-10-31T17:13:55.508Z,22.77
2022-10-31T17:16:21.939Z,17.88
2022-10-31T17:18:48.374Z,22.98
2022-10-31T17:21:14.794Z,24.38
2022-10-31T17:23:41.234Z,25.13
2022-10-31T17:26:07.662Z,22.02
2022-10-31T17:28:34.102Z,22.35
2022-10-31T17:31:00.541Z,23.58
2022-10-31T17:33:27.000Z,26.17
2022-10-31T17:35:53.433Z,22.98
2022-10-31T17:38:19.885Z,22.20
2022-10-31T17:43:17.682Z,21.95
2022-10-31T17:45:44.132Z,22.38
2022-10-31T17:48:10.602Z,21.25
2022-10-31T17:50:37.045Z,22.67
2022-10-31T17:53:03.770Z,20.45
2022-10-31T17:55:34.445Z,22.88
2022-10-31T17:58:03.976Z,25.20
2022-10-31T18:00:30.438Z,23.05
2022-10-31T18:02:56.870Z,22.77
2022-10-31T18:05:23.316Z,24.27
2022-10-31T18:07:49.742Z,22.88
2022-10-31T18:10:16.198Z,25.13
2022-10-31T18:12:42.638Z,24.60
2022-10-31T18:15:09.083Z,23.98
2022-10-31T18:17:38.083Z,26.35
2022-10-31T18:22:33.995Z,31.13
2022-10-31T18:25:02.199Z,27.05
2022-10-31T18:27:29.186Z,26.88
2022-10-31T18:29:55.662Z,27.50
2022-10-31T18:32:22.123Z,22.00
2022-10-31T18:34:48.554Z,21.67
2022-10-31T18:37:14.977Z,20.27
2022-10-31T18:39:41.415Z,23.63
2022-10-31T18:42:07.866Z,27.05
2022-10-31T18:44:34.308Z,22.10
2022-10-31T18:47:00.739Z,23.10
2022-10-31T18:49:27.185Z,20.83
2022-10-31T18:51:53.628Z,23.60
2022-10-31T18:54:20.152Z,18.23
2022-10-31T18:56:46.607Z,18.40
2022-10-31T18:59:13.051Z,15.07
2022-10-31T19:01:39.614Z,18.33
2022-10-31T19:04:06.230Z,18.05
2022-10-31T19:06:32.654Z,16.65
2022-10-31T19:08:59.102Z,13.30
2022-10-31T19:11:25.539Z,16.23
2022-10-31T19:13:51.990Z,22.75
2022-10-31T19:16:18.416Z,21.05
2022-10-31T19:18:44.854Z,20.05
2022-10-31T19:21:11.292Z,18.98
2022-10-31T19:23:37.732Z,19.05
2022-10-31T19:26:04.167Z,20.02
2022-10-31T19:28:30.612Z,20.75
2022-10-31T19:30:57.038Z,16.30
2022-10-31T19:33:23.475Z,16.88
2022-10-31T19:35:49.925Z,12.70
2022-10-31T19:38:16.367Z,12.07
2022-10-31T19:40:42.799Z,10.80
2022-10-31T19:43:09.219Z,12.40
2022-10-31T19:45:35.651Z,9.80
2022-10-31T19:48:02.389Z,11.60
2022-10-31T19:50:28.957Z,13.00
2022-10-31T19:52:55.384Z,12.73
2022-10-31T19:55:21.823Z,12.05
2022-10-31T19:58:01.448Z,9.77
2022-10-31T20:00:28.548Z,7.57
2022-10-31T20:02:54.962Z,7.70
2022-10-31T20:05:21.396Z,6.15
2022-10-31T20:07:47.820Z,7.22
2022-10-31T20:10:14.266Z,4.78
2022-10-31T20:12:40.681Z,6.32
2022-10-31T20:15:07.102Z,6.75
2022-10-31T20:17:33.517Z,5.20
2022-10-31T20:19:59.996Z,5.53
2022-10-31T20:22:26.482Z,6.03
2022-10-31T20:24:52.915Z,6.03
2022-10-31T20:27:19.342Z,5.47
2022-10-31T20:29:45.780Z,6.65
2022-10-31T20:32:12.206Z,7.20
2022-10-31T20:34:38.685Z,7.10
2022-10-31T20:37:05.136Z,5.75
2022-10-31T20:39:31.568Z,7.70
2022-10-31T20:41:58.007Z,6.57
2022-10-31T20:44:24.462Z,7.18
2022-10-31T20:46:50.901Z,7.20
2022-10-31T20:49:17.336Z,7.80
2022-10-31T20:51:43.771Z,5.25
2022-10-31T20:54:10.189Z,6.43
2022-10-31T20:56:36.632Z,7.47
2022-10-31T20:59:03.055Z,6.90
2022-10-31T21:01:29.557Z,6.95
2022-10-31T21:03:56.098Z,6.45
2022-10-31T21:06:22.522Z,7.20
2022-10-31T21:08:48.940Z,7.80
2022-10-31T21:11:15.378Z,7.07
2022-10-31T21:13:41.806Z,5.57
2022-10-31T21:16:08.257Z,5.70
2022-10-31T21:18:34.680Z,6.10
2022-10-31T21:21:01.130Z,6.63
2022-10-31T21:23:27.555Z,5.43
2022-10-31T21:25:53.996Z,6.65
2022-10-31T21:28:20.418Z,7.13
2022-10-31T21:30:46.863Z,6.72
2022-10-31T21:33:13.274Z,5.18
2022-10-31T21:35:39.706Z,5.47
2022-10-31T21:38:06.148Z,6.57
2022-10-31T21:40:32.670Z,6.13
2022-10-31T21:42:59.479Z,7.13
2022-10-31T21:45:26.183Z,5.55
2022-10-31T21:47:52.619Z,5.75
2022-10-31T21:50:19.048Z,5.47
2022-10-31T21:52:45.475Z,4.60
2022-10-31T21:55:11.923Z,5.55
2022-10-31T21:57:38.352Z,5.22
2022-10-31T22:00:04.805Z,5.22
2022-10-31T22:02:31.234Z,5.47
2022-10-31T22:04:57.649Z,7.15
2022-10-31T22:07:24.085Z,6.40
2022-10-31T22:09:50.526Z,5.22
2022-10-31T22:12:16.958Z,4.97
2022-10-31T22:17:14.741Z,4.07
2022-10-31T22:19:41.197Z,3.88
2022-10-31T22:22:07.649Z,4.38
2022-10-31T22:24:34.089Z,4.10
2022-10-31T22:27:00.537Z,4.15
2022-10-31T22:29:26.985Z,5.35
2022-10-31T22:31:57.348Z,5.15
2022-10-31T22:34:27.048Z,5.10
2022-10-31T22:36:53.492Z,3.90
2022-10-31T22:39:19.934Z,4.75
2022-10-31T22:41:46.384Z,5.65
2022-10-31T22:44:12.806Z,3.58
2022-10-31T22:46:39.249Z,4.75
2022-10-31T22:49:05.672Z,4.93
2022-10-31T22:51:32.113Z,3.80
2022-10-31T22:53:58.559Z,4.47
2022-10-31T22:56:25.005Z,4.93
2022-10-31T22:58:51.446Z,3.90
2022-10-31T23:01:18.077Z,4.78
2022-10-31T23:03:44.595Z,4.22
2022-10-31T23:06:11.034Z,2.35
2022-10-31T23:08:37.474Z,3.67
2022-10-31T23:11:03.920Z,4.90
2022-10-31T23:13:30.343Z,5.40
2022-10-31T23:15:56.781Z,4.13
2022-10-31T23:18:47.904Z,4.53
2022-10-31T23:21:09.637Z,4.55
2022-10-31T23:23:36.074Z,3.47
2022-10-31T23:26:02.515Z,4.28
2022-10-31T23:28:28.945Z,3.33
2022-10-31T23:30:55.381Z,3.38
2022-10-31T23:33:21.827Z,3.95
2022-10-31T23:35:48.272Z,5.25
2022-10-31T23:38:14.712Z,3.28
2022-10-31T23:40:41.127Z,3.92
2022-10-31T23:43:07.558Z,3.72
2022-10-31T23:45:33.972Z,3.03
2022-10-31T23:48:00.658Z,3.25
2022-10-31T23:50:27.239Z,4.47
2022-10-31T23:52:53.669Z,4.45
2022-10-31T23:55:20.092Z,4.47
2022-10-31T23:57:46.531Z,4.80
